Forside
METAR-TAF:

METAR-TAF

Lufthavne :

Indianapolis, Indiana, USA

Breddekreds: 39-43-30N, længdekreds: 086-16-55W, højde: 243 m

Aktuelle vejr

Denne rapport blev lavet for 15 minutter siden, kl. 22:54 UTC
Vind 12 kt fra nordnordvest
Temperatur 29°C
Fugtighed 37%
Tryk 1016 hPa
Sigt: 16.1 km
Nogle få skyer i en højde af 6500 ft
Brudte skyer i en højde af 25000 ft

METAR: KIND 172254Z 34012KT 10SM FEW065 BKN250 29/13 A3001 RMK AO2 SLP155 T02890133

Tid: 19:09 (23:09 UTC)

Vejrudsigter

Denne rapport blev lavet for 3 timer og 8 minutter siden, kl. 20:01 UTC
Foreløbig gælder fra 17 på 20 UTC til 18 på 24 UTC
Vind 10 kt fra nordnordvest
Sigt: 10 km
skyfri
Fra 18 på 1000 UTC
Vind 5 kt fra nord
Sigt: 10 km
skyfri

TAF: KIND 172001Z 1720/1824 33010KT P6SM SKC FM181000 01005KT P6SM SKC

Vejrobservationer og prognoser fra mere end 4000 lufthavne (METAR og TAF).

De gule og røde prikker repræsenterer de meteorologiske stationer.

Flyt musen over at se navnet på stationen.

Så klik over at se vejr observationer og prognoser.

At skifte det kort: Klik på de grønne knapper med et sort kors for at zoome ind; på den grønne knap med en bindestreg for at zoome ud; eller på de grønne pile for tilstødende kort.


METAR-TAF: